sensor_id;sensor_type;location;lat;lon;timestamp;temperature;humidity
76567;DHT22;65428;53.194;6.132;2023-07-20T00:01:15;15.00;99.90
76567;DHT22;65428;53.194;6.132;2023-07-20T00:03:41;15.10;99.90
76567;DHT22;65428;53.194;6.132;2023-07-20T00:06:07;14.80;99.90
76567;DHT22;65428;53.194;6.132;2023-07-20T00:08:33;15.10;99.90
76567;DHT22;65428;53.194;6.132;2023-07-20T00:10:58;14.80;99.90
76567;DHT22;65428;53.194;6.132;2023-07-20T00:13:24;14.50;99.90
76567;DHT22;65428;53.194;6.132;2023-07-20T00:15:51;14.40;99.90
76567;DHT22;65428;53.194;6.132;2023-07-20T00:18:17;14.60;99.90
76567;DHT22;65428;53.194;6.132;2023-07-20T00:20:47;14.40;99.90
76567;DHT22;65428;53.194;6.132;2023-07-20T00:23:12;14.10;99.90
76567;DHT22;65428;53.194;6.132;2023-07-20T00:25:38;14.30;99.90
76567;DHT22;65428;53.194;6.132;2023-07-20T00:28:04;14.20;99.90
76567;DHT22;65428;53.194;6.132;2023-07-20T00:30:29;13.90;99.90
76567;DHT22;65428;53.194;6.132;2023-07-20T00:32:55;13.90;99.90
76567;DHT22;65428;53.194;6.132;2023-07-20T00:35:21;13.80;99.90
76567;DHT22;65428;53.194;6.132;2023-07-20T00:37:46;14.30;99.90
76567;DHT22;65428;53.194;6.132;2023-07-20T00:40:12;13.70;99.90
76567;DHT22;65428;53.194;6.132;2023-07-20T00:42:39;13.70;99.90
76567;DHT22;65428;53.194;6.132;2023-07-20T00:45:05;13.90;99.90
76567;DHT22;65428;53.194;6.132;2023-07-20T00:47:31;13.50;99.90
76567;DHT22;65428;53.194;6.132;2023-07-20T00:49:57;14.10;99.90
76567;DHT22;65428;53.194;6.132;2023-07-20T00:52:25;13.60;99.90
76567;DHT22;65428;53.194;6.132;2023-07-20T00:54:52;13.40;99.90
76567;DHT22;65428;53.194;6.132;2023-07-20T00:57:21;13.60;99.90
76567;DHT22;65428;53.194;6.132;2023-07-20T00:59:48;13.30;99.90
76567;DHT22;65428;53.194;6.132;2023-07-20T01:02:14;13.20;99.90
76567;DHT22;65428;53.194;6.132;2023-07-20T01:04:39;13.20;99.90
76567;DHT22;65428;53.194;6.132;2023-07-20T01:15:04;13.00;99.90
76567;DHT22;65428;53.194;6.132;2023-07-20T01:17:30;12.90;99.90
76567;DHT22;65428;53.194;6.132;2023-07-20T01:19:55;12.90;99.90
76567;DHT22;65428;53.194;6.132;2023-07-20T01:30:59;12.70;99.90
76567;DHT22;65428;53.194;6.132;2023-07-20T01:33:25;12.60;99.90
76567;DHT22;65428;53.194;6.132;2023-07-20T01:35:56;12.60;99.90
76567;DHT22;65428;53.194;6.132;2023-07-20T01:38:24;12.60;99.90
76567;DHT22;65428;53.194;6.132;2023-07-20T01:40:50;12.50;99.90
76567;DHT22;65428;53.194;6.132;2023-07-20T01:43:17;12.80;99.90
76567;DHT22;65428;53.194;6.132;2023-07-20T01:45:43;12.40;99.90
76567;DHT22;65428;53.194;6.132;2023-07-20T01:48:09;12.70;99.90
76567;DHT22;65428;53.194;6.132;2023-07-20T01:50:35;12.70;99.90
76567;DHT22;65428;53.194;6.132;2023-07-20T01:53:01;12.70;99.90
76567;DHT22;65428;53.194;6.132;2023-07-20T01:55:27;12.30;99.90
76567;DHT22;65428;53.194;6.132;2023-07-20T01:57:53;12.30;99.90
76567;DHT22;65428;53.194;6.132;2023-07-20T02:00:18;12.60;99.90
76567;DHT22;65428;53.194;6.132;2023-07-20T02:02:46;12.20;99.90
76567;DHT22;65428;53.194;6.132;2023-07-20T02:05:12;12.20;99.90
76567;DHT22;65428;53.194;6.132;2023-07-20T02:07:38;12.50;99.90
76567;DHT22;65428;53.194;6.132;2023-07-20T02:10:05;12.10;99.90
76567;DHT22;65428;53.194;6.132;2023-07-20T02:12:31;12.10;99.90
76567;DHT22;65428;53.194;6.132;2023-07-20T02:14:56;12.30;99.90
76567;DHT22;65428;53.194;6.132;2023-07-20T02:17:22;12.00;99.90
76567;DHT22;65428;53.194;6.132;2023-07-20T02:19:52;12.00;99.90
76567;DHT22;65428;53.194;6.132;2023-07-20T02:22:17;11.90;99.90
76567;DHT22;65428;53.194;6.132;2023-07-20T02:24:43;11.80;99.90
76567;DHT22;65428;53.194;6.132;2023-07-20T02:27:09;11.90;99.90
76567;DHT22;65428;53.194;6.132;2023-07-20T02:29:34;12.00;99.90
76567;DHT22;65428;53.194;6.132;2023-07-20T02:32:01;11.80;99.90
76567;DHT22;65428;53.194;6.132;2023-07-20T02:34:27;11.70;99.90
76567;DHT22;65428;53.194;6.132;2023-07-20T02:36:53;11.90;99.90
76567;DHT22;65428;53.194;6.132;2023-07-20T02:39:21;11.60;99.90
76567;DHT22;65428;53.194;6.132;2023-07-20T02:41:47;11.60;99.90
76567;DHT22;65428;53.194;6.132;2023-07-20T02:44:14;11.90;99.90
76567;DHT22;65428;53.194;6.132;2023-07-20T02:46:40;12.00;99.90
76567;DHT22;65428;53.194;6.132;2023-07-20T02:49:06;11.50;99.90
76567;DHT22;65428;53.194;6.132;2023-07-20T02:51:31;11.70;99.90
76567;DHT22;65428;53.194;6.132;2023-07-20T02:53:57;11.60;99.90
76567;DHT22;65428;53.194;6.132;2023-07-20T02:56:23;11.50;99.90
76567;DHT22;65428;53.194;6.132;2023-07-20T02:58:50;11.80;99.90
76567;DHT22;65428;53.194;6.132;2023-07-20T03:01:15;11.40;99.90
76567;DHT22;65428;53.194;6.132;2023-07-20T03:03:42;11.60;99.90
76567;DHT22;65428;53.194;6.132;2023-07-20T03:06:12;11.50;99.90
76567;DHT22;65428;53.194;6.132;2023-07-20T03:08:38;11.60;99.90
76567;DHT22;65428;53.194;6.132;2023-07-20T03:11:04;11.60;99.90
76567;DHT22;65428;53.194;6.132;2023-07-20T03:13:29;11.30;99.90
76567;DHT22;65428;53.194;6.132;2023-07-20T03:15:55;11.30;99.90
76567;DHT22;65428;53.194;6.132;2023-07-20T03:18:21;11.90;99.90
76567;DHT22;65428;53.194;6.132;2023-07-20T03:20:46;11.20;99.90
76567;DHT22;65428;53.194;6.132;2023-07-20T03:23:14;11.20;99.90
76567;DHT22;65428;53.194;6.132;2023-07-20T03:25:41;11.10;99.90
76567;DHT22;65428;53.194;6.132;2023-07-20T03:28:06;11.10;99.90
76567;DHT22;65428;53.194;6.132;2023-07-20T03:30:33;11.10;99.90
76567;DHT22;65428;53.194;6.132;2023-07-20T03:32:58;11.40;99.90
76567;DHT22;65428;53.194;6.132;2023-07-20T03:35:24;11.30;99.90
76567;DHT22;65428;53.194;6.132;2023-07-20T03:37:50;11.00;99.90
76567;DHT22;65428;53.194;6.132;2023-07-20T03:40:15;11.50;99.90
76567;DHT22;65428;53.194;6.132;2023-07-20T03:42:42;11.00;99.90
76567;DHT22;65428;53.194;6.132;2023-07-20T03:45:07;11.20;99.90
76567;DHT22;65428;53.194;6.132;2023-07-20T03:47:33;11.00;99.90
76567;DHT22;65428;53.194;6.132;2023-07-20T03:49:59;11.10;99.90
76567;DHT22;65428;53.194;6.132;2023-07-20T03:52:25;11.00;99.90
76567;DHT22;65428;53.194;6.132;2023-07-20T03:54:51;11.10;99.90
76567;DHT22;65428;53.194;6.132;2023-07-20T03:57:17;11.00;99.90
76567;DHT22;65428;53.194;6.132;2023-07-20T03:59:45;11.00;99.90
76567;DHT22;65428;53.194;6.132;2023-07-20T04:02:11;11.00;99.90
76567;DHT22;65428;53.194;6.132;2023-07-20T04:04:37;11.50;99.90
76567;DHT22;65428;53.194;6.132;2023-07-20T04:07:03;11.00;99.90
76567;DHT22;65428;53.194;6.132;2023-07-20T04:09:31;11.00;99.90
76567;DHT22;65428;53.194;6.132;2023-07-20T04:11:57;11.10;99.90
76567;DHT22;65428;53.194;6.132;2023-07-20T04:14:22;11.30;99.90
76567;DHT22;65428;53.194;6.132;2023-07-20T04:16:48;11.00;99.90
76567;DHT22;65428;53.194;6.132;2023-07-20T04:19:14;11.70;99.90
76567;DHT22;65428;53.194;6.132;2023-07-20T04:21:40;11.00;99.90
76567;DHT22;65428;53.194;6.132;2023-07-20T04:24:08;11.00;99.90
76567;DHT22;65428;53.194;6.132;2023-07-20T04:26:34;11.00;99.90
76567;DHT22;65428;53.194;6.132;2023-07-20T04:29:01;11.00;99.90
76567;DHT22;65428;53.194;6.132;2023-07-20T04:31:26;10.90;99.90
76567;DHT22;65428;53.194;6.132;2023-07-20T04:33:52;11.00;99.90
76567;DHT22;65428;53.194;6.132;2023-07-20T04:36:18;11.30;99.90
76567;DHT22;65428;53.194;6.132;2023-07-20T04:38:48;11.10;99.90
76567;DHT22;65428;53.194;6.132;2023-07-20T04:41:13;11.20;99.90
76567;DHT22;65428;53.194;6.132;2023-07-20T04:43:43;11.20;99.90
76567;DHT22;65428;53.194;6.132;2023-07-20T04:46:10;11.60;99.90
76567;DHT22;65428;53.194;6.132;2023-07-20T04:48:36;11.60;99.90
76567;DHT22;65428;53.194;6.132;2023-07-20T04:51:02;11.40;99.90
76567;DHT22;65428;53.194;6.132;2023-07-20T04:53:28;11.50;99.90
76567;DHT22;65428;53.194;6.132;2023-07-20T04:55:54;12.00;99.90
76567;DHT22;65428;53.194;6.132;2023-07-20T04:58:21;11.80;99.90
76567;DHT22;65428;53.194;6.132;2023-07-20T05:00:48;12.00;99.90
76567;DHT22;65428;53.194;6.132;2023-07-20T05:03:14;12.60;99.90
76567;DHT22;65428;53.194;6.132;2023-07-20T05:05:40;11.80;99.90
76567;DHT22;65428;53.194;6.132;2023-07-20T05:08:05;12.60;99.90
76567;DHT22;65428;53.194;6.132;2023-07-20T05:10:31;12.80;99.90
76567;DHT22;65428;53.194;6.132;2023-07-20T05:12:58;12.90;99.90
76567;DHT22;65428;53.194;6.132;2023-07-20T05:15:24;13.10;99.90
76567;DHT22;65428;53.194;6.132;2023-07-20T05:17:50;13.30;99.90
76567;DHT22;65428;53.194;6.132;2023-07-20T05:20:15;13.70;99.90
76567;DHT22;65428;53.194;6.132;2023-07-20T05:22:42;13.60;99.90
76567;DHT22;65428;53.194;6.132;2023-07-20T05:25:09;13.80;99.90
76567;DHT22;65428;53.194;6.132;2023-07-20T05:27:39;14.80;99.90
76567;DHT22;65428;53.194;6.132;2023-07-20T05:30:06;14.30;99.90
76567;DHT22;65428;53.194;6.132;2023-07-20T05:32:33;14.30;99.90
76567;DHT22;65428;53.194;6.132;2023-07-20T05:34:58;14.80;99.90
76567;DHT22;65428;53.194;6.132;2023-07-20T05:37:24;14.60;99.90
76567;DHT22;65428;53.194;6.132;2023-07-20T05:39:50;15.00;99.90
76567;DHT22;65428;53.194;6.132;2023-07-20T05:42:16;14.80;99.90
76567;DHT22;65428;53.194;6.132;2023-07-20T05:44:42;15.30;99.90
76567;DHT22;65428;53.194;6.132;2023-07-20T05:47:08;14.90;99.90
76567;DHT22;65428;53.194;6.132;2023-07-20T05:49:34;15.20;99.90
76567;DHT22;65428;53.194;6.132;2023-07-20T05:52:00;15.60;99.90
76567;DHT22;65428;53.194;6.132;2023-07-20T05:54:27;15.40;99.90
76567;DHT22;65428;53.194;6.132;2023-07-20T05:56:53;15.50;99.90
76567;DHT22;65428;53.194;6.132;2023-07-20T05:59:19;15.70;99.90
76567;DHT22;65428;53.194;6.132;2023-07-20T06:01:45;15.70;99.90
76567;DHT22;65428;53.194;6.132;2023-07-20T06:04:12;15.80;99.90
76567;DHT22;65428;53.194;6.132;2023-07-20T06:06:38;15.90;99.90
76567;DHT22;65428;53.194;6.132;2023-07-20T06:09:04;15.90;99.90
76567;DHT22;65428;53.194;6.132;2023-07-20T06:11:31;16.00;99.90
76567;DHT22;65428;53.194;6.132;2023-07-20T06:13:57;16.10;99.90
76567;DHT22;65428;53.194;6.132;2023-07-20T06:16:23;16.10;99.90
76567;DHT22;65428;53.194;6.132;2023-07-20T06:18:49;16.20;99.90
76567;DHT22;65428;53.194;6.132;2023-07-20T06:21:15;16.60;99.90
76567;DHT22;65428;53.194;6.132;2023-07-20T06:23:41;16.60;99.90
76567;DHT22;65428;53.194;6.132;2023-07-20T06:26:07;16.40;99.90
76567;DHT22;65428;53.194;6.132;2023-07-20T06:28:33;16.50;99.90
76567;DHT22;65428;53.194;6.132;2023-07-20T06:31:00;16.60;99.90
76567;DHT22;65428;53.194;6.132;2023-07-20T06:33:26;16.80;99.90
76567;DHT22;65428;53.194;6.132;2023-07-20T06:35:52;16.90;99.90
76567;DHT22;65428;53.194;6.132;2023-07-20T06:38:18;17.00;99.90
76567;DHT22;65428;53.194;6.132;2023-07-20T06:40:46;17.20;99.90
76567;DHT22;65428;53.194;6.132;2023-07-20T06:43:12;17.40;99.90
76567;DHT22;65428;53.194;6.132;2023-07-20T06:45:38;17.30;99.90
76567;DHT22;65428;53.194;6.132;2023-07-20T06:48:03;17.10;99.90
76567;DHT22;65428;53.194;6.132;2023-07-20T06:50:30;17.20;99.90
76567;DHT22;65428;53.194;6.132;2023-07-20T06:52:55;17.60;99.90
76567;DHT22;65428;53.194;6.132;2023-07-20T06:55:21;17.70;99.90
76567;DHT22;65428;53.194;6.132;2023-07-20T06:57:47;17.50;99.90
76567;DHT22;65428;53.194;6.132;2023-07-20T07:00:13;18.00;99.90
76567;DHT22;65428;53.194;6.132;2023-07-20T07:02:39;17.70;99.90
76567;DHT22;65428;53.194;6.132;2023-07-20T07:05:05;17.90;99.90
76567;DHT22;65428;53.194;6.132;2023-07-20T07:07:31;17.90;99.90
76567;DHT22;65428;53.194;6.132;2023-07-20T07:09:58;18.20;99.90
76567;DHT22;65428;53.194;6.132;2023-07-20T07:12:24;18.10;99.90
76567;DHT22;65428;53.194;6.132;2023-07-20T07:14:50;18.60;99.90
76567;DHT22;65428;53.194;6.132;2023-07-20T07:17:15;18.90;99.90
76567;DHT22;65428;53.194;6.132;2023-07-20T07:19:41;18.90;99.90
76567;DHT22;65428;53.194;6.132;2023-07-20T07:22:07;18.80;99.90
76567;DHT22;65428;53.194;6.132;2023-07-20T07:24:33;18.70;99.90
76567;DHT22;65428;53.194;6.132;2023-07-20T07:27:02;19.00;99.90
76567;DHT22;65428;53.194;6.132;2023-07-20T07:29:29;19.00;99.90
76567;DHT22;65428;53.194;6.132;2023-07-20T07:31:55;19.10;99.90
76567;DHT22;65428;53.194;6.132;2023-07-20T07:34:20;19.10;99.90
76567;DHT22;65428;53.194;6.132;2023-07-20T07:36:46;19.50;99.90
76567;DHT22;65428;53.194;6.132;2023-07-20T07:39:12;19.60;99.90
76567;DHT22;65428;53.194;6.132;2023-07-20T07:41:38;19.10;99.90
76567;DHT22;65428;53.194;6.132;2023-07-20T07:44:04;19.10;99.90
76567;DHT22;65428;53.194;6.132;2023-07-20T07:46:30;18.70;99.90
76567;DHT22;65428;53.194;6.132;2023-07-20T07:48:55;18.20;99.90
76567;DHT22;65428;53.194;6.132;2023-07-20T07:51:21;17.80;99.90
76567;DHT22;65428;53.194;6.132;2023-07-20T07:53:47;17.50;99.90
76567;DHT22;65428;53.194;6.132;2023-07-20T07:56:14;17.80;99.90
76567;DHT22;65428;53.194;6.132;2023-07-20T07:58:40;18.50;99.90
76567;DHT22;65428;53.194;6.132;2023-07-20T08:01:06;18.50;99.90
76567;DHT22;65428;53.194;6.132;2023-07-20T08:03:31;18.90;99.90
76567;DHT22;65428;53.194;6.132;2023-07-20T08:05:57;19.50;99.90
76567;DHT22;65428;53.194;6.132;2023-07-20T08:08:25;19.50;99.90
76567;DHT22;65428;53.194;6.132;2023-07-20T08:10:53;20.00;99.90
76567;DHT22;65428;53.194;6.132;2023-07-20T08:13:20;20.10;99.90
76567;DHT22;65428;53.194;6.132;2023-07-20T08:15:50;19.70;99.90
76567;DHT22;65428;53.194;6.132;2023-07-20T08:18:18;19.10;99.90
76567;DHT22;65428;53.194;6.132;2023-07-20T08:20:45;18.50;99.90
76567;DHT22;65428;53.194;6.132;2023-07-20T08:23:11;18.30;99.90
76567;DHT22;65428;53.194;6.132;2023-07-20T08:25:39;18.30;99.90
76567;DHT22;65428;53.194;6.132;2023-07-20T08:28:10;18.90;99.90
76567;DHT22;65428;53.194;6.132;2023-07-20T08:30:47;19.30;99.90
76567;DHT22;65428;53.194;6.132;2023-07-20T08:33:14;19.40;99.90
76567;DHT22;65428;53.194;6.132;2023-07-20T08:35:40;19.40;97.60
76567;DHT22;65428;53.194;6.132;2023-07-20T08:38:06;19.40;93.70
76567;DHT22;65428;53.194;6.132;2023-07-20T08:40:34;19.00;96.70
76567;DHT22;65428;53.194;6.132;2023-07-20T08:43:00;18.90;93.70
76567;DHT22;65428;53.194;6.132;2023-07-20T08:45:27;18.90;97.80
76567;DHT22;65428;53.194;6.132;2023-07-20T08:47:56;19.30;99.90
76567;DHT22;65428;53.194;6.132;2023-07-20T08:50:25;19.70;91.40
76567;DHT22;65428;53.194;6.132;2023-07-20T08:52:52;20.30;93.40
76567;DHT22;65428;53.194;6.132;2023-07-20T08:55:20;20.20;90.60
76567;DHT22;65428;53.194;6.132;2023-07-20T08:57:50;20.30;86.60
76567;DHT22;65428;53.194;6.132;2023-07-20T09:00:17;20.30;93.00
76567;DHT22;65428;53.194;6.132;2023-07-20T09:02:45;20.10;92.10
76567;DHT22;65428;53.194;6.132;2023-07-20T09:05:11;20.10;90.80
76567;DHT22;65428;53.194;6.132;2023-07-20T09:07:39;20.20;75.40
76567;DHT22;65428;53.194;6.132;2023-07-20T09:10:09;20.20;82.10
76567;DHT22;65428;53.194;6.132;2023-07-20T09:12:40;20.10;88.40
76567;DHT22;65428;53.194;6.132;2023-07-20T09:15:07;20.10;83.60
76567;DHT22;65428;53.194;6.132;2023-07-20T09:17:33;20.20;89.90
76567;DHT22;65428;53.194;6.132;2023-07-20T09:20:04;20.20;80.50
76567;DHT22;65428;53.194;6.132;2023-07-20T09:22:37;20.00;81.10
76567;DHT22;65428;53.194;6.132;2023-07-20T09:25:08;20.60;79.70
76567;DHT22;65428;53.194;6.132;2023-07-20T09:27:41;20.50;79.50
76567;DHT22;65428;53.194;6.132;2023-07-20T09:30:08;20.40;70.80
76567;DHT22;65428;53.194;6.132;2023-07-20T09:32:48;20.30;83.00
76567;DHT22;65428;53.194;6.132;2023-07-20T09:35:15;19.90;90.40
76567;DHT22;65428;53.194;6.132;2023-07-20T09:37:46;20.40;81.30
76567;DHT22;65428;53.194;6.132;2023-07-20T09:40:15;20.60;82.20
76567;DHT22;65428;53.194;6.132;2023-07-20T09:42:42;21.10;99.90
76567;DHT22;65428;53.194;6.132;2023-07-20T09:45:08;21.60;72.50
76567;DHT22;65428;53.194;6.132;2023-07-20T09:47:36;21.70;64.90
76567;DHT22;65428;53.194;6.132;2023-07-20T09:50:03;21.40;66.70
76567;DHT22;65428;53.194;6.132;2023-07-20T09:52:30;21.30;80.60
76567;DHT22;65428;53.194;6.132;2023-07-20T09:54:57;21.30;70.30
76567;DHT22;65428;53.194;6.132;2023-07-20T09:57:23;21.70;83.20
76567;DHT22;65428;53.194;6.132;2023-07-20T09:59:49;21.70;71.60
76567;DHT22;65428;53.194;6.132;2023-07-20T10:02:25;22.10;62.30
76567;DHT22;65428;53.194;6.132;2023-07-20T10:04:53;22.50;65.70
76567;DHT22;65428;53.194;6.132;2023-07-20T10:07:20;22.70;61.90
76567;DHT22;65428;53.194;6.132;2023-07-20T10:09:48;22.70;66.20
76567;DHT22;65428;53.194;6.132;2023-07-20T10:12:16;22.60;63.60
76567;DHT22;65428;53.194;6.132;2023-07-20T10:14:52;22.60;65.70
76567;DHT22;65428;53.194;6.132;2023-07-20T10:17:19;22.90;63.20
76567;DHT22;65428;53.194;6.132;2023-07-20T10:19:51;22.90;56.80
76567;DHT22;65428;53.194;6.132;2023-07-20T10:22:27;23.30;58.50
76567;DHT22;65428;53.194;6.132;2023-07-20T10:24:54;23.50;61.30
76567;DHT22;65428;53.194;6.132;2023-07-20T10:27:23;23.70;57.30
76567;DHT22;65428;53.194;6.132;2023-07-20T10:29:50;23.70;64.70
76567;DHT22;65428;53.194;6.132;2023-07-20T10:32:16;23.80;59.50
76567;DHT22;65428;53.194;6.132;2023-07-20T10:34:42;24.00;57.70
76567;DHT22;65428;53.194;6.132;2023-07-20T10:37:08;24.50;55.90
76567;DHT22;65428;53.194;6.132;2023-07-20T10:39:34;24.70;56.50
76567;DHT22;65428;53.194;6.132;2023-07-20T10:42:07;24.90;55.90
76567;DHT22;65428;53.194;6.132;2023-07-20T10:44:33;24.10;53.50
76567;DHT22;65428;53.194;6.132;2023-07-20T10:47:08;23.70;53.70
76567;DHT22;65428;53.194;6.132;2023-07-20T10:49:34;23.70;58.30
76567;DHT22;65428;53.194;6.132;2023-07-20T10:52:05;24.10;57.00
76567;DHT22;65428;53.194;6.132;2023-07-20T10:57:24;25.00;55.10
76567;DHT22;65428;53.194;6.132;2023-07-20T10:59:50;25.10;53.50
76567;DHT22;65428;53.194;6.132;2023-07-20T11:02:18;25.00;49.30
76567;DHT22;65428;53.194;6.132;2023-07-20T11:04:46;24.50;48.90
76567;DHT22;65428;53.194;6.132;2023-07-20T11:07:17;23.90;51.30
76567;DHT22;65428;53.194;6.132;2023-07-20T11:09:43;23.70;51.60
76567;DHT22;65428;53.194;6.132;2023-07-20T11:12:13;23.60;57.60
76567;DHT22;65428;53.194;6.132;2023-07-20T11:14:53;24.00;56.60
76567;DHT22;65428;53.194;6.132;2023-07-20T11:17:19;24.30;52.50
76567;DHT22;65428;53.194;6.132;2023-07-20T11:19:56;24.80;52.20
76567;DHT22;65428;53.194;6.132;2023-07-20T11:22:22;25.60;50.10
76567;DHT22;65428;53.194;6.132;2023-07-20T11:24:48;25.80;45.80
76567;DHT22;65428;53.194;6.132;2023-07-20T11:27:15;25.50;49.10
76567;DHT22;65428;53.194;6.132;2023-07-20T11:29:41;24.80;48.10
76567;DHT22;65428;53.194;6.132;2023-07-20T11:32:07;24.20;49.00
76567;DHT22;65428;53.194;6.132;2023-07-20T11:34:33;23.40;51.30
76567;DHT22;65428;53.194;6.132;2023-07-20T11:37:00;22.60;53.00
76567;DHT22;65428;53.194;6.132;2023-07-20T11:39:26;22.40;55.60
76567;DHT22;65428;53.194;6.132;2023-07-20T11:41:56;22.00;69.70
76567;DHT22;65428;53.194;6.132;2023-07-20T11:44:23;21.50;66.70
76567;DHT22;65428;53.194;6.132;2023-07-20T11:47:12;21.20;70.10
76567;DHT22;65428;53.194;6.132;2023-07-20T11:49:42;20.80;89.20
76567;DHT22;65428;53.194;6.132;2023-07-20T11:52:11;21.20;75.20
76567;DHT22;65428;53.194;6.132;2023-07-20T11:54:40;21.40;75.80
76567;DHT22;65428;53.194;6.132;2023-07-20T11:57:06;21.30;73.30
76567;DHT22;65428;53.194;6.132;2023-07-20T11:59:33;21.70;73.80
76567;DHT22;65428;53.194;6.132;2023-07-20T12:02:01;21.90;69.90
76567;DHT22;65428;53.194;6.132;2023-07-20T12:04:28;22.00;66.00
76567;DHT22;65428;53.194;6.132;2023-07-20T12:06:54;22.10;65.70
76567;DHT22;65428;53.194;6.132;2023-07-20T12:09:23;21.90;71.00
76567;DHT22;65428;53.194;6.132;2023-07-20T12:11:50;21.70;69.40
76567;DHT22;65428;53.194;6.132;2023-07-20T12:14:16;21.50;67.40
76567;DHT22;65428;53.194;6.132;2023-07-20T12:16:42;21.30;62.20
76567;DHT22;65428;53.194;6.132;2023-07-20T12:19:10;21.20;64.70
76567;DHT22;65428;53.194;6.132;2023-07-20T12:21:38;21.00;63.30
76567;DHT22;65428;53.194;6.132;2023-07-20T12:24:04;20.90;80.50
76567;DHT22;65428;53.194;6.132;2023-07-20T12:26:30;21.00;87.70
76567;DHT22;65428;53.194;6.132;2023-07-20T12:28:56;21.30;76.30
76567;DHT22;65428;53.194;6.132;2023-07-20T12:31:22;21.60;69.10
76567;DHT22;65428;53.194;6.132;2023-07-20T12:33:50;21.30;61.40
76567;DHT22;65428;53.194;6.132;2023-07-20T12:36:16;21.10;61.70
76567;DHT22;65428;53.194;6.132;2023-07-20T12:38:42;21.00;62.20
76567;DHT22;65428;53.194;6.132;2023-07-20T12:41:10;20.90;72.80
76567;DHT22;65428;53.194;6.132;2023-07-20T12:43:40;21.20;85.70
76567;DHT22;65428;53.194;6.132;2023-07-20T12:46:07;21.40;81.20
76567;DHT22;65428;53.194;6.132;2023-07-20T12:48:32;22.50;79.90
76567;DHT22;65428;53.194;6.132;2023-07-20T12:50:58;23.30;62.90
76567;DHT22;65428;53.194;6.132;2023-07-20T12:53:24;24.10;63.00
76567;DHT22;65428;53.194;6.132;2023-07-20T12:55:50;24.40;56.10
76567;DHT22;65428;53.194;6.132;2023-07-20T12:58:15;24.80;60.60
76567;DHT22;65428;53.194;6.132;2023-07-20T13:00:41;25.20;53.40
76567;DHT22;65428;53.194;6.132;2023-07-20T13:03:07;25.60;49.10
76567;DHT22;65428;53.194;6.132;2023-07-20T13:05:34;25.90;49.20
76567;DHT22;65428;53.194;6.132;2023-07-20T13:08:01;26.20;48.60
76567;DHT22;65428;53.194;6.132;2023-07-20T13:10:27;26.30;49.60
76567;DHT22;65428;53.194;6.132;2023-07-20T13:12:54;26.70;50.50
76567;DHT22;65428;53.194;6.132;2023-07-20T13:15:20;27.00;47.70
76567;DHT22;65428;53.194;6.132;2023-07-20T13:17:46;27.00;44.40
76567;DHT22;65428;53.194;6.132;2023-07-20T13:20:12;26.60;46.70
76567;DHT22;65428;53.194;6.132;2023-07-20T13:22:40;26.90;49.40
76567;DHT22;65428;53.194;6.132;2023-07-20T13:25:07;26.70;47.80
76567;DHT22;65428;53.194;6.132;2023-07-20T13:27:33;27.20;47.90
76567;DHT22;65428;53.194;6.132;2023-07-20T13:30:02;27.40;47.30
76567;DHT22;65428;53.194;6.132;2023-07-20T13:32:32;27.40;46.90
76567;DHT22;65428;53.194;6.132;2023-07-20T13:34:58;27.60;47.80
76567;DHT22;65428;53.194;6.132;2023-07-20T13:37:23;27.70;44.10
76567;DHT22;65428;53.194;6.132;2023-07-20T13:39:49;27.70;45.70
76567;DHT22;65428;53.194;6.132;2023-07-20T13:42:14;27.10;45.40
76567;DHT22;65428;53.194;6.132;2023-07-20T13:44:40;27.20;47.40
76567;DHT22;65428;53.194;6.132;2023-07-20T13:47:06;26.70;45.90
76567;DHT22;65428;53.194;6.132;2023-07-20T13:49:32;26.80;44.30
76567;DHT22;65428;53.194;6.132;2023-07-20T13:51:58;26.70;42.40
76567;DHT22;65428;53.194;6.132;2023-07-20T13:54:24;26.10;43.80
76567;DHT22;65428;53.194;6.132;2023-07-20T13:56:50;25.60;44.60
76567;DHT22;65428;53.194;6.132;2023-07-20T13:59:19;26.20;46.50
76567;DHT22;65428;53.194;6.132;2023-07-20T14:01:45;26.10;45.90
76567;DHT22;65428;53.194;6.132;2023-07-20T14:04:12;25.70;47.20
76567;DHT22;65428;53.194;6.132;2023-07-20T14:06:38;25.30;46.10
76567;DHT22;65428;53.194;6.132;2023-07-20T14:09:03;25.80;49.00
76567;DHT22;65428;53.194;6.132;2023-07-20T14:11:29;26.40;47.70
76567;DHT22;65428;53.194;6.132;2023-07-20T14:13:55;26.90;45.60
76567;DHT22;65428;53.194;6.132;2023-07-20T14:16:24;27.50;44.70
76567;DHT22;65428;53.194;6.132;2023-07-20T14:18:50;28.00;41.40
76567;DHT22;65428;53.194;6.132;2023-07-20T14:21:17;28.20;42.30
76567;DHT22;65428;53.194;6.132;2023-07-20T14:23:45;28.70;41.60
76567;DHT22;65428;53.194;6.132;2023-07-20T14:26:12;29.10;41.60
76567;DHT22;65428;53.194;6.132;2023-07-20T14:28:38;29.10;40.70
76567;DHT22;65428;53.194;6.132;2023-07-20T14:31:04;28.30;41.50
76567;DHT22;65428;53.194;6.132;2023-07-20T14:33:31;27.60;41.00
76567;DHT22;65428;53.194;6.132;2023-07-20T14:35:56;26.80;43.60
76567;DHT22;65428;53.194;6.132;2023-07-20T14:38:22;26.20;45.60
76567;DHT22;65428;53.194;6.132;2023-07-20T14:40:48;25.70;46.30
76567;DHT22;65428;53.194;6.132;2023-07-20T14:43:16;25.00;45.70
76567;DHT22;65428;53.194;6.132;2023-07-20T14:45:41;24.70;45.10
76567;DHT22;65428;53.194;6.132;2023-07-20T14:48:07;24.60;47.00
76567;DHT22;65428;53.194;6.132;2023-07-20T14:50:34;23.90;49.30
76567;DHT22;65428;53.194;6.132;2023-07-20T14:53:00;23.60;48.30
76567;DHT22;65428;53.194;6.132;2023-07-20T14:55:25;23.40;47.50
76567;DHT22;65428;53.194;6.132;2023-07-20T14:57:51;23.30;50.20
76567;DHT22;65428;53.194;6.132;2023-07-20T15:00:18;23.10;50.00
76567;DHT22;65428;53.194;6.132;2023-07-20T15:02:44;22.90;49.70
76567;DHT22;65428;53.194;6.132;2023-07-20T15:05:10;22.80;53.30
76567;DHT22;65428;53.194;6.132;2023-07-20T15:07:36;22.80;51.20
76567;DHT22;65428;53.194;6.132;2023-07-20T15:10:03;22.90;50.10
76567;DHT22;65428;53.194;6.132;2023-07-20T15:12:30;22.80;50.20
76567;DHT22;65428;53.194;6.132;2023-07-20T15:15:04;22.60;49.00
76567;DHT22;65428;53.194;6.132;2023-07-20T15:17:30;22.40;50.80
76567;DHT22;65428;53.194;6.132;2023-07-20T15:19:56;22.70;50.70
76567;DHT22;65428;53.194;6.132;2023-07-20T15:22:22;22.30;49.20
76567;DHT22;65428;53.194;6.132;2023-07-20T15:24:47;22.30;51.50
76567;DHT22;65428;53.194;6.132;2023-07-20T15:27:13;22.20;48.40
76567;DHT22;65428;53.194;6.132;2023-07-20T15:29:39;22.10;49.70
76567;DHT22;65428;53.194;6.132;2023-07-20T15:32:05;21.70;49.10
76567;DHT22;65428;53.194;6.132;2023-07-20T15:34:32;21.70;48.80
76567;DHT22;65428;53.194;6.132;2023-07-20T15:36:57;21.70;51.10
76567;DHT22;65428;53.194;6.132;2023-07-20T15:39:23;22.00;53.10
76567;DHT22;65428;53.194;6.132;2023-07-20T15:41:49;21.70;51.70
76567;DHT22;65428;53.194;6.132;2023-07-20T15:44:16;21.70;54.40
76567;DHT22;65428;53.194;6.132;2023-07-20T15:49:07;21.70;49.90